Time;durP1;ratioP1;P1;durP2;ratioP2;P2;SDS_P1;SDS_P2;PMS_P1;PMS_P2;Temp;Humidity;BMP_temperature;BMP_pressure;BME280_temperature;BME280_humidity;BME280_pressure;Samples;Min_cycle;Max_cycle;Signal;HPM_P1;HPM_P2
2023/11/16 00:00:11;;;;;;;10.00;6.20;;;;;;;14.00;76.75;99811.08;108141;1288;21989;-62
2023/11/16 00:02:47;;;;;;;8.10;5.10;;;;;;;13.98;76.55;99811.69;108089;1288;22028;-62
2023/11/16 00:05:16;;;;;;;8.20;5.30;;;;;;;13.95;76.31;99809.13;108119;1288;22076;-62
2023/11/16 00:07:48;;;;;;;9.40;4.70;;;;;;;13.91;76.34;99812.45;108110;1283;21992;-63
2023/11/16 00:10:14;;;;;;;9.60;5.60;;;;;;;13.88;76.19;99813.63;108188;1284;22025;-62
2023/11/16 00:12:40;;;;;;;9.30;5.90;;;;;;;13.85;76.10;99815.14;108113;1288;21992;-68
2023/11/16 00:15:07;;;;;;;7.30;5.40;;;;;;;13.81;76.18;99818.09;108144;1277;22005;-62
2023/11/16 00:17:33;;;;;;;7.20;5.50;;;;;;;13.78;76.31;99819.06;108129;1288;21993;-63
2023/11/16 00:20:00;;;;;;;6.30;5.00;;;;;;;13.74;76.62;99819.55;108148;1283;21990;-66
2023/11/16 00:22:26;;;;;;;7.90;5.10;;;;;;;13.71;76.71;99818.60;108123;1288;21990;-68
2023/11/16 00:24:55;;;;;;;7.70;4.80;;;;;;;13.69;76.67;99816.73;107390;1284;1002641;-62
2023/11/16 00:27:21;;;;;;;9.10;5.50;;;;;;;13.68;76.82;99814.13;108065;1288;21986;-64
2023/11/16 00:29:47;;;;;;;8.80;5.20;;;;;;;13.66;77.31;99814.89;108129;1288;22024;-66
2023/11/16 00:32:13;;;;;;;8.40;5.50;;;;;;;13.65;77.11;99816.68;108124;1277;21996;-64
2023/11/16 00:34:42;;;;;;;10.30;5.70;;;;;;;13.65;76.98;99818.10;108147;1288;21986;-62
2023/11/16 00:37:08;;;;;;;8.00;5.20;;;;;;;13.64;77.38;99816.73;108026;1288;21999;-63
2023/11/16 00:39:34;;;;;;;9.60;5.40;;;;;;;13.64;77.33;99816.56;108139;1288;22003;-66
2023/11/16 00:41:59;;;;;;;7.60;5.50;;;;;;;13.64;77.33;99818.51;108140;1288;21999;-62
2023/11/16 00:44:25;;;;;;;8.60;5.80;;;;;;;13.61;78.14;99822.14;108124;1288;21997;-67
2023/11/16 00:46:52;;;;;;;7.70;5.80;;;;;;;13.57;78.54;99824.36;108091;1288;21995;-67
2023/11/16 00:49:18;;;;;;;8.20;5.90;;;;;;;13.58;78.13;99826.45;108123;1287;22001;-64
2023/11/16 00:51:44;;;;;;;11.60;5.90;;;;;;;13.59;77.77;99828.38;108053;1284;22121;-67
2023/11/16 00:54:12;;;;;;;8.40;5.60;;;;;;;13.61;77.77;99832.69;107985;1289;22015;-62
2023/11/16 00:56:38;;;;;;;7.70;5.90;;;;;;;13.60;77.73;99834.13;108043;1284;22460;-68
2023/11/16 00:59:05;;;;;;;8.60;5.60;;;;;;;13.60;77.80;99836.42;108073;1288;23442;-62
2023/11/16 01:01:32;;;;;;;8.70;6.40;;;;;;;13.60;78.02;99835.38;107999;1287;24332;-67
2023/11/16 01:04:00;;;;;;;10.20;6.40;;;;;;;13.63;77.41;99837.20;108003;1289;21992;-68
2023/11/16 01:06:29;;;;;;;9.70;6.00;;;;;;;13.64;77.64;99839.82;108082;1283;24196;-62
2023/11/16 01:08:56;;;;;;;9.70;6.10;;;;;;;13.64;77.66;99844.23;108072;1284;21999;-67
2023/11/16 01:11:27;;;;;;;9.40;6.60;;;;;;;13.65;77.42;99851.61;108058;1289;22007;-68
2023/11/16 01:13:54;;;;;;;9.30;6.10;;;;;;;13.66;77.28;99849.61;107988;1286;22066;-68
2023/11/16 01:16:22;;;;;;;10.10;6.60;;;;;;;13.68;77.47;99849.20;108060;1286;23648;-67
2023/11/16 01:18:51;;;;;;;8.50;6.20;;;;;;;13.69;77.48;99851.63;108043;1288;21994;-62
2023/11/16 01:21:17;;;;;;;10.20;7.60;;;;;;;13.69;77.51;99853.92;108099;1280;22007;-63
2023/11/16 01:23:45;;;;;;;10.20;6.50;;;;;;;13.70;77.41;99856.02;108031;1288;21988;-68
2023/11/16 01:26:15;;;;;;;11.60;6.90;;;;;;;13.70;77.51;99856.55;108003;1288;22037;-61
2023/11/16 01:28:50;;;;;;;8.80;6.20;;;;;;;13.72;77.28;99858.23;107996;1288;22195;-62
2023/11/16 01:31:17;;;;;;;9.20;6.30;;;;;;;13.72;77.18;99862.10;107317;1279;1002315;-62
2023/11/16 01:33:43;;;;;;;8.50;5.90;;;;;;;13.72;76.90;99858.97;107965;1288;21991;-62
2023/11/16 01:36:09;;;;;;;9.60;6.10;;;;;;;13.69;76.81;99859.21;108008;1286;22457;-62
2023/11/16 01:38:36;;;;;;;10.80;6.30;;;;;;;13.71;76.74;99858.97;108111;1284;21992;-62
2023/11/16 01:41:06;;;;;;;7.20;4.90;;;;;;;13.72;76.60;99860.88;108075;1288;22001;-62
2023/11/16 01:43:36;;;;;;;8.30;5.50;;;;;;;13.74;76.58;99861.71;108069;1288;21989;-62
2023/11/16 01:46:05;;;;;;;7.70;5.40;;;;;;;13.73;76.71;99858.03;108062;1289;21965;-62
2023/11/16 01:48:32;;;;;;;11.20;6.30;;;;;;;13.72;76.83;99861.59;108032;1281;23132;-62
2023/11/16 01:50:58;;;;;;;8.30;5.60;;;;;;;13.74;76.72;99857.84;108102;1288;21990;-63
2023/11/16 01:53:25;;;;;;;8.10;5.20;;;;;;;13.75;76.77;99855.87;108036;1288;22002;-69
2023/11/16 01:55:50;;;;;;;7.50;5.60;;;;;;;13.76;76.77;99856.52;108048;1288;22001;-69
2023/11/16 01:58:16;;;;;;;7.80;5.50;;;;;;;13.78;76.73;99853.11;107859;1289;22001;-63
2023/11/16 02:00:42;;;;;;;11.40;6.20;;;;;;;13.76;77.69;99847.73;107947;1288;22447;-69
2023/11/16 02:03:07;;;;;;;9.50;5.70;;;;;;;13.71;77.96;99842.59;108085;1283;23612;-69
2023/11/16 02:05:34;;;;;;;11.20;6.50;;;;;;;13.67;78.17;99840.79;108035;1289;21992;-69
2023/11/16 02:08:01;;;;;;;10.00;6.80;;;;;;;13.59;79.04;99839.46;107988;1289;22001;-69
2023/11/16 02:10:30;;;;;;;12.90;8.40;;;;;;;13.55;79.20;99837.64;108051;1287;22769;-67
2023/11/16 02:12:56;;;;;;;12.10;8.40;;;;;;;13.52;79.39;99836.33;109955;1289;21889;-62
2023/11/16 02:15:21;;;;;;;13.20;7.50;;;;;;;13.54;78.62;99835.40;108089;1287;22002;-63
2023/11/16 02:17:48;;;;;;;14.30;8.80;;;;;;;13.56;78.37;99837.80;108024;1277;21990;-69
2023/11/16 02:20:15;;;;;;;14.30;9.90;;;;;;;13.58;78.17;99837.54;107986;1289;21988;-63
2023/11/16 02:22:41;;;;;;;11.70;8.80;;;;;;;13.61;78.02;99845.92;108032;1287;21962;-68
2023/11/16 02:25:08;;;;;;;12.30;8.40;;;;;;;13.61;77.63;99848.57;108112;1289;21993;-63
2023/11/16 02:27:34;;;;;;;12.60;8.50;;;;;;;13.60;77.44;99850.53;108030;1289;21993;-68
2023/11/16 02:30:00;;;;;;;12.30;8.90;;;;;;;13.61;77.35;99849.79;107983;1289;22001;-67
2023/11/16 02:32:26;;;;;;;11.60;8.10;;;;;;;13.60;77.19;99853.68;108000;1289;21992;-62
2023/11/16 02:34:54;;;;;;;10.90;7.40;;;;;;;13.59;77.43;99852.86;107994;1284;21989;-64
2023/11/16 02:37:20;;;;;;;10.70;7.30;;;;;;;13.55;77.49;99851.05;107995;1289;21994;-62
2023/11/16 02:39:45;;;;;;;9.60;6.80;;;;;;;13.48;78.39;99851.27;108022;1287;22008;-68
2023/11/16 02:42:13;;;;;;;10.10;6.80;;;;;;;13.42;78.91;99850.77;107986;1289;21990;-62
2023/11/16 02:44:42;;;;;;;10.80;6.50;;;;;;;13.40;78.48;99852.21;108009;1289;21996;-68
2023/11/16 02:47:08;;;;;;;12.50;6.40;;;;;;;13.37;78.36;99852.11;108001;1283;21987;-62
2023/11/16 02:49:34;;;;;;;8.90;6.60;;;;;;;13.34;78.76;99846.77;108063;1289;22006;-68
2023/11/16 02:52:00;;;;;;;10.50;6.60;;;;;;;13.30;79.21;99849.70;108032;1287;21997;-68
2023/11/16 02:54:26;;;;;;;11.20;7.00;;;;;;;13.27;78.97;99849.63;107949;1289;21990;-62
2023/11/16 02:56:52;;;;;;;8.00;5.60;;;;;;;13.22;78.64;99848.72;107977;1283;22000;-68
2023/11/16 02:59:18;;;;;;;8.90;6.20;;;;;;;13.20;78.70;99847.02;107993;1289;22000;-68
2023/11/16 03:01:44;;;;;;;10.90;6.20;;;;;;;13.15;79.19;99851.95;108017;1289;21987;-63
2023/11/16 03:04:10;;;;;;;8.20;5.70;;;;;;;13.13;78.56;99856.41;108009;1289;22460;-69
2023/11/16 03:06:37;;;;;;;8.30;5.60;;;;;;;13.13;77.84;99860.11;107969;1277;21994;-69
2023/11/16 03:09:04;;;;;;;7.30;4.90;;;;;;;13.12;77.60;99864.73;108006;1289;22001;-62
2023/11/16 03:11:33;;;;;;;9.40;5.30;;;;;;;13.08;78.00;99863.41;107990;1280;22006;-69
2023/11/16 03:13:59;;;;;;;7.80;5.00;;;;;;;13.03;78.07;99862.88;108015;1287;21989;-69
2023/11/16 03:16:25;;;;;;;7.00;4.90;;;;;;;13.01;77.52;99863.27;108006;1289;22030;-69
2023/11/16 03:18:52;;;;;;;8.20;5.10;;;;;;;13.00;77.04;99868.09;108031;1288;21990;-69
2023/11/16 03:21:18;;;;;;;8.50;5.20;;;;;;;12.98;76.75;99872.02;107991;1283;21989;-69
2023/11/16 03:23:44;;;;;;;8.70;4.80;;;;;;;12.91;77.14;99874.33;107993;1277;22029;-63
2023/11/16 03:26:10;;;;;;;11.50;5.90;;;;;;;12.85;77.22;99878.91;108068;1289;21982;-69
2023/11/16 03:28:36;;;;;;;7.60;5.00;;;;;;;12.83;76.73;99878.27;107957;1289;21987;-62
2023/11/16 03:31:05;;;;;;;7.60;5.00;;;;;;;12.82;76.86;99876.54;108089;1289;21992;-62
2023/11/16 03:33:34;;;;;;;10.80;5.20;;;;;;;12.81;76.69;99883.63;107978;1288;21998;-62
2023/11/16 03:36:00;;;;;;;8.80;5.20;;;;;;;12.78;76.52;99887.92;108094;1288;22003;-69
2023/11/16 03:38:26;;;;;;;8.10;5.00;;;;;;;12.75;76.39;99889.06;107995;1288;21996;-69
2023/11/16 03:40:52;;;;;;;9.60;4.80;;;;;;;12.73;76.15;99884.73;108061;1288;21992;-63
2023/11/16 03:43:18;;;;;;;8.90;4.90;;;;;;;12.71;76.16;99886.54;108038;1288;21992;-69
2023/11/16 03:45:44;;;;;;;11.50;4.50;;;;;;;12.70;76.10;99885.50;108104;1288;21990;-70
2023/11/16 03:48:11;;;;;;;8.60;5.00;;;;;;;12.69;75.87;99892.23;108059;1288;21997;-62
2023/11/16 03:50:39;;;;;;;7.10;4.90;;;;;;;12.67;75.81;99899.52;108009;1287;22000;-62
2023/11/16 03:53:06;;;;;;;8.80;4.60;;;;;;;12.64;75.82;99900.64;108028;1288;21990;-70
2023/11/16 03:55:32;;;;;;;9.00;4.70;;;;;;;12.62;75.83;99901.75;108102;1284;21992;-62
2023/11/16 03:57:57;;;;;;;8.90;5.20;;;;;;;12.59;75.97;99902.36;108009;1284;22002;-63
2023/11/16 04:00:25;;;;;;;6.70;4.70;;;;;;;12.58;75.98;99907.69;108058;1288;21992;-70
2023/11/16 04:02:56;;;;;;;9.30;4.90;;;;;;;12.57;76.20;99910.54;108011;1288;21998;-70
2023/11/16 04:05:22;;;;;;;8.70;4.90;;;;;;;12.55;76.25;99917.80;108035;1288;21994;-62
2023/11/16 04:07:48;;;;;;;9.10;4.50;;;;;;;12.53;75.96;99919.77;107879;1288;21990;-62
2023/11/16 04:10:14;;;;;;;8.80;4.60;;;;;;;12.52;76.01;99925.95;108063;1288;21987;-63
2023/11/16 04:12:40;;;;;;;6.50;4.10;;;;;;;12.51;76.21;99934.27;108000;1288;21993;-64
2023/11/16 04:15:13;;;;;;;5.80;3.90;;;;;;;12.51;76.22;99941.13;108129;1287;21992;-63
2023/11/16 04:17:39;;;;;;;7.20;4.60;;;;;;;12.51;76.11;99944.47;108052;1288;23724;-71
2023/11/16 04:20:09;;;;;;;7.50;4.50;;;;;;;12.53;76.09;99945.46;108034;1288;23612;-71
2023/11/16 04:22:41;;;;;;;8.00;4.50;;;;;;;12.54;76.43;99947.73;108005;1284;21994;-71
2023/11/16 04:25:25;;;;;;;8.60;4.40;;;;;;;12.55;76.64;99955.80;108005;1288;21986;-71
2023/11/16 04:28:00;;;;;;;8.20;4.70;;;;;;;12.58;76.56;99961.16;108015;1288;21992;-70
2023/11/16 04:30:30;;;;;;;8.60;4.50;;;;;;;12.60;76.60;99964.45;108051;1288;21989;-63
2023/11/16 04:32:59;;;;;;;6.80;4.60;;;;;;;12.62;76.64;99971.80;108024;1284;21986;-63
2023/11/16 04:35:25;;;;;;;6.80;4.40;;;;;;;12.63;76.54;99980.39;108064;1288;22156;-63
2023/11/16 04:37:52;;;;;;;6.00;4.30;;;;;;;12.64;76.56;99983.17;108041;1287;21995;-70
2023/11/16 04:40:19;;;;;;;6.30;4.30;;;;;;;12.65;76.49;99988.45;107992;1288;21990;-70
2023/11/16 04:42:47;;;;;;;7.00;5.10;;;;;;;12.65;76.76;99987.73;108059;1288;22000;-70
2023/11/16 04:45:14;;;;;;;6.30;4.00;;;;;;;12.64;76.54;99991.80;108093;1278;21991;-71
2023/11/16 04:47:46;;;;;;;8.90;5.40;;;;;;;12.65;76.53;99999.34;108117;1288;21996;-71
2023/11/16 04:50:16;;;;;;;9.80;4.90;;;;;;;12.64;76.85;100005.17;108160;1288;21994;-70
2023/11/16 04:52:43;;;;;;;8.60;4.60;;;;;;;12.67;76.51;100008.29;108142;1288;24413;-62
2023/11/16 04:55:09;;;;;;;8.20;4.90;;;;;;;12.69;76.50;100015.09;108120;1283;22021;-71
2023/11/16 04:57:34;;;;;;;7.60;4.30;;;;;;;12.69;76.47;100020.56;108033;1288;21961;-63
2023/11/16 05:00:00;;;;;;;6.60;4.30;;;;;;;12.67;76.56;100024.65;108158;1274;22001;-62
2023/11/16 05:02:26;;;;;;;8.90;4.80;;;;;;;12.66;76.27;100026.79;108110;1288;21992;-71
2023/11/16 05:04:53;;;;;;;7.70;4.70;;;;;;;12.65;75.99;100025.41;108149;1288;21987;-66
2023/11/16 05:07:19;;;;;;;8.60;4.80;;;;;;;12.67;76.27;100032.74;108105;1288;22000;-63
2023/11/16 05:09:45;;;;;;;8.70;5.40;;;;;;;12.71;76.60;100037.55;108093;1288;22006;-72
2023/11/16 05:12:11;;;;;;;6.70;3.80;;;;;;;12.75;76.32;100047.49;108116;1275;21985;-71
2023/11/16 05:14:37;;;;;;;7.70;4.10;;;;;;;12.77;75.99;100055.20;108089;1288;21995;-62
2023/11/16 05:17:05;;;;;;;11.90;4.50;;;;;;;12.77;75.94;100061.00;108155;1277;21986;-72
2023/11/16 05:19:30;;;;;;;7.40;4.40;;;;;;;12.77;76.03;100065.05;108073;1284;21994;-73
2023/11/16 05:21:56;;;;;;;7.80;4.10;;;;;;;12.79;75.90;100064.66;108067;1288;22020;-71
2023/11/16 05:24:23;;;;;;;7.80;4.30;;;;;;;12.83;76.03;100068.25;108115;1288;22006;-73
2023/11/16 05:26:48;;;;;;;5.90;3.70;;;;;;;12.87;76.07;100071.13;108112;1287;21991;-72
2023/11/16 05:29:14;;;;;;;8.20;4.30;;;;;;;12.92;75.85;100076.98;108148;1283;21995;-61
2023/11/16 05:31:39;;;;;;;6.60;3.80;;;;;;;12.95;75.80;100083.23;108041;1288;21990;-62
2023/11/16 05:34:07;;;;;;;6.10;4.30;;;;;;;12.97;75.59;100078.96;108059;1281;22270;-73
2023/11/16 05:36:36;;;;;;;7.20;4.40;;;;;;;12.97;75.39;100081.42;108076;1284;21992;-62
2023/11/16 05:39:03;;;;;;;6.50;4.10;;;;;;;12.97;75.34;100083.89;108035;1284;21985;-63
2023/11/16 05:41:29;;;;;;;7.10;4.60;;;;;;;12.97;75.06;100086.71;108073;1287;21990;-62
2023/11/16 05:43:55;;;;;;;6.40;3.90;;;;;;;12.96;74.88;100090.62;107963;1286;21992;-62
2023/11/16 05:46:21;;;;;;;7.60;4.20;;;;;;;12.94;74.83;100092.77;107859;1287;21990;-62
2023/11/16 05:48:47;;;;;;;7.60;4.10;;;;;;;12.93;74.79;100097.73;107977;1278;21999;-63
2023/11/16 05:51:12;;;;;;;7.90;4.10;;;;;;;12.90;74.48;100102.39;108006;1288;21959;-73
2023/11/16 05:53:38;;;;;;;7.70;4.40;;;;;;;12.85;74.28;100108.14;108014;1288;22009;-72
2023/11/16 05:56:04;;;;;;;8.90;5.10;;;;;;;12.81;74.28;100108.95;107996;1283;22192;-72
2023/11/16 05:58:30;;;;;;;8.80;4.60;;;;;;;12.77;74.27;100110.48;108018;1288;23193;-63
2023/11/16 06:00:55;;;;;;;10.00;5.10;;;;;;;12.72;74.16;100113.07;108049;1288;22000;-63
2023/11/16 06:03:26;;;;;;;7.90;4.80;;;;;;;12.66;74.12;100117.60;107999;1281;22000;-72
2023/11/16 06:05:53;;;;;;;8.40;5.00;;;;;;;12.62;74.16;100118.23;108138;1288;22046;-63
2023/11/16 06:08:20;;;;;;;8.10;5.00;;;;;;;12.58;74.23;100118.16;108021;1287;22200;-63
2023/11/16 06:10:45;;;;;;;6.70;4.70;;;;;;;12.55;74.35;100118.41;108002;1288;22000;-63
2023/11/16 06:13:11;;;;;;;8.70;5.10;;;;;;;12.52;74.64;100124.30;108010;1287;22054;-72
2023/11/16 06:15:37;;;;;;;8.70;4.40;;;;;;;12.51;75.10;100128.89;107979;1287;23718;-71
2023/11/16 06:18:04;;;;;;;8.20;4.70;;;;;;;12.53;75.43;100128.49;107955;1279;22012;-71
2023/11/16 06:20:30;;;;;;;7.00;4.90;;;;;;;12.59;75.61;100131.86;108018;1283;23615;-64
2023/11/16 06:22:55;;;;;;;10.40;5.10;;;;;;;12.65;76.38;100131.02;107982;1289;21996;-63
2023/11/16 06:25:21;;;;;;;9.60;5.40;;;;;;;12.71;76.82;100132.09;107298;1281;1002533;-65
2023/11/16 06:27:47;;;;;;;7.10;4.60;;;;;;;12.80;76.38;100137.70;107992;1286;21990;-71
2023/11/16 06:30:13;;;;;;;6.80;5.10;;;;;;;12.87;76.80;100137.68;107990;1289;22003;-70
2023/11/16 06:32:38;;;;;;;7.10;4.60;;;;;;;12.95;77.31;100135.56;108013;1284;21989;-63
2023/11/16 06:35:04;;;;;;;12.30;6.80;;;;;;;13.04;77.61;100140.61;108083;1289;21989;-70
2023/11/16 06:37:31;;;;;;;7.20;4.70;;;;;;;13.18;77.89;100143.58;107964;1289;22000;-63
2023/11/16 06:39:58;;;;;;;8.30;4.70;;;;;;;13.33;77.89;100142.45;108064;1289;21988;-67
2023/11/16 06:42:23;;;;;;;7.40;4.90;;;;;;;13.45;77.93;100144.10;107992;1284;21983;-68
2023/11/16 06:44:50;;;;;;;10.90;4.50;;;;;;;13.56;77.41;100144.69;107984;1286;21997;-62
2023/11/16 06:47:18;;;;;;;7.60;4.70;;;;;;;13.63;76.97;100145.71;107982;1278;21998;-69
2023/11/16 06:49:47;;;;;;;11.90;5.30;;;;;;;13.69;77.43;100147.83;108004;1289;21990;-68
2023/11/16 06:52:19;;;;;;;6.70;4.70;;;;;;;13.77;77.24;100145.33;107971;1284;21952;-61
2023/11/16 06:54:45;;;;;;;37.00;5.40;;;;;;;13.83;77.15;100146.55;107996;1289;21957;-61
2023/11/16 06:57:12;;;;;;;19.60;4.50;;;;;;;13.90;77.35;100145.48;107935;1277;21996;-62
2023/11/16 06:59:38;;;;;;;5.40;3.70;;;;;;;13.99;77.32;100150.14;107998;1289;21995;-61
2023/11/16 07:02:04;;;;;;;6.60;3.70;;;;;;;14.07;77.07;100150.23;107961;1289;21997;-66
2023/11/16 07:04:30;;;;;;;10.00;5.10;;;;;;;14.16;77.11;100150.17;107994;1289;21992;-65
2023/11/16 07:06:56;;;;;;;7.70;4.50;;;;;;;14.23;76.60;100161.41;107944;1283;21990;-66
2023/11/16 07:09:26;;;;;;;9.50;4.30;;;;;;;14.26;75.57;100163.79;107911;1289;21990;-62
2023/11/16 07:11:52;;;;;;;9.40;4.20;;;;;;;14.29;75.43;100171.29;107912;1289;21998;-61
2023/11/16 07:14:19;;;;;;;10.10;3.90;;;;;;;14.34;75.97;100171.48;107952;1277;22012;-64
2023/11/16 07:16:46;;;;;;;12.50;4.10;;;;;;;14.45;76.12;100174.69;107942;1283;21956;-65
2023/11/16 07:19:16;;;;;;;9.00;4.40;;;;;;;14.57;76.43;100176.75;107952;1278;23740;-63
2023/11/16 07:21:42;;;;;;;15.30;3.70;;;;;;;14.70;76.40;100173.02;107909;1289;22005;-67
2023/11/16 07:24:07;;;;;;;7.80;3.80;;;;;;;14.77;75.52;100179.16;107898;1283;22455;-62
2023/11/16 07:26:33;;;;;;;13.80;4.00;;;;;;;14.80;74.47;100179.59;107913;1289;21993;-62
2023/11/16 07:28:59;;;;;;;7.50;3.70;;;;;;;14.87;74.92;100175.81;107912;1289;21992;-62
2023/11/16 07:31:27;;;;;;;5.40;3.60;;;;;;;14.99;75.35;100174.20;107960;1288;22031;-64
2023/11/16 07:33:54;;;;;;;8.90;4.10;;;;;;;15.08;74.31;100177.05;108143;1288;21994;-62
2023/11/16 07:36:25;;;;;;;31.60;4.90;;;;;;;15.09;73.55;100178.45;107914;1289;21994;-62
2023/11/16 07:38:52;;;;;;;10.40;3.90;;;;;;;15.08;73.33;100174.94;108024;1284;22011;-65
2023/11/16 07:41:20;;;;;;;5.60;3.60;;;;;;;15.07;72.72;100174.09;108097;1284;21997;-62
2023/11/16 07:43:46;;;;;;;8.00;3.60;;;;;;;15.01;71.83;100174.82;108021;1288;23075;-61
2023/11/16 07:46:12;;;;;;;5.90;3.60;;;;;;;14.91;71.41;100173.93;107973;1288;23625;-61
2023/11/16 07:48:39;;;;;;;5.50;3.60;;;;;;;14.80;70.62;100172.02;108032;1284;22032;-65
2023/11/16 07:51:07;;;;;;;5.20;3.40;;;;;;;14.66;70.34;100170.13;107250;1281;1002895;-69
2023/11/16 07:53:33;;;;;;;4.60;3.00;;;;;;;14.60;70.60;100172.96;108101;1286;21992;-66
2023/11/16 07:56:05;;;;;;;4.60;3.10;;;;;;;14.56;71.04;100170.96;108120;1288;21998;-66
2023/11/16 07:58:35;;;;;;;6.00;3.80;;;;;;;14.60;70.99;100172.97;108084;1288;22464;-66
2023/11/16 08:01:04;;;;;;;4.40;3.40;;;;;;;14.56;70.55;100172.38;108030;1275;21995;-66
2023/11/16 08:03:43;;;;;;;4.90;3.30;;;;;;;14.45;69.99;100173.79;108060;1288;23615;-66
2023/11/16 08:06:12;;;;;;;4.60;3.70;;;;;;;14.46;69.92;100177.99;108001;1278;22000;-64
2023/11/16 08:08:45;;;;;;;7.50;4.00;;;;;;;14.53;69.87;100183.59;107955;1289;21994;-64
2023/11/16 08:11:12;;;;;;;8.60;4.60;;;;;;;14.56;69.93;100192.52;107191;1289;1002257;-63
2023/11/16 08:13:41;;;;;;;6.10;4.20;;;;;;;14.52;70.00;100190.34;107985;1287;21995;-63
2023/11/16 08:16:10;;;;;;;6.50;3.90;;;;;;;14.64;70.26;100197.74;107969;1287;21994;-64
2023/11/16 08:18:37;;;;;;;5.60;3.60;;;;;;;14.66;69.63;100201.95;107937;1289;23618;-64
2023/11/16 08:21:06;;;;;;;4.50;2.90;;;;;;;14.78;69.58;100201.92;107967;1289;21999;-59
2023/11/16 08:23:38;;;;;;;7.40;2.30;;;;;;;14.78;68.05;100199.45;107951;1289;22012;-60
2023/11/16 08:26:12;;;;;;;5.50;2.50;;;;;;;14.85;67.14;100202.22;108049;1288;22304;-60
2023/11/16 08:28:38;;;;;;;3.40;2.10;;;;;;;14.70;66.18;100205.70;108028;1288;22460;-64
2023/11/16 08:31:06;;;;;;;3.10;2.20;;;;;;;14.71;67.00;100204.95;108028;1286;21984;-66
2023/11/16 08:33:33;;;;;;;3.80;2.60;;;;;;;14.82;66.58;100208.66;108040;1288;21990;-65
2023/11/16 08:35:59;;;;;;;5.20;2.80;;;;;;;14.76;65.70;100205.69;108113;1284;21992;-65
2023/11/16 08:38:26;;;;;;;4.90;2.20;;;;;;;14.85;65.03;100206.29;107996;1278;21991;-64
2023/11/16 08:40:53;;;;;;;3.30;2.10;;;;;;;14.81;63.91;100215.25;108007;1288;22003;-64
2023/11/16 08:43:18;;;;;;;3.60;1.90;;;;;;;14.80;63.82;100220.55;108027;1288;22024;-62
2023/11/16 08:45:45;;;;;;;3.30;1.80;;;;;;;14.81;63.39;100217.16;108090;1284;22034;-62
2023/11/16 08:48:16;;;;;;;3.50;2.10;;;;;;;14.82;63.18;100210.95;107892;1288;21987;-64
2023/11/16 08:50:43;;;;;;;3.10;1.90;;;;;;;14.80;63.56;100211.04;108051;1288;21993;-61
2023/11/16 08:53:12;;;;;;;3.20;1.70;;;;;;;14.88;63.07;100208.81;108030;1289;22068;-62
2023/11/16 08:55:38;;;;;;;5.20;2.10;;;;;;;14.92;61.87;100210.65;107996;1289;22253;-65
2023/11/16 08:58:06;;;;;;;4.10;2.00;;;;;;;15.10;62.34;100211.45;107931;1289;22010;-66
2023/11/16 09:00:36;;;;;;;3.90;2.30;;;;;;;15.12;60.70;100207.88;107994;1277;22027;-61
2023/11/16 09:03:07;;;;;;;2.90;1.80;;;;;;;15.14;60.52;100208.66;107913;1289;22109;-67
2023/11/16 09:05:35;;;;;;;3.20;1.90;;;;;;;15.22;59.63;100207.70;107913;1288;22082;-68
2023/11/16 09:08:01;;;;;;;2.50;1.50;;;;;;;15.17;58.20;100204.71;108010;1289;23732;-67
2023/11/16 09:10:31;;;;;;;2.50;1.70;;;;;;;15.18;58.68;100204.64;108022;1287;21987;-61
2023/11/16 09:12:57;;;;;;;3.80;1.70;;;;;;;15.24;59.70;100205.69;108066;1288;21992;-68
2023/11/16 09:15:23;;;;;;;3.50;1.80;;;;;;;15.20;59.01;100203.89;108015;1288;21989;-62
2023/11/16 09:17:50;;;;;;;4.00;1.60;;;;;;;15.29;59.09;100200.23;108006;1288;22009;-67
2023/11/16 09:20:18;;;;;;;2.60;1.70;;;;;;;15.43;60.02;100197.80;108023;1288;23612;-62
2023/11/16 09:22:44;;;;;;;3.70;2.20;;;;;;;15.49;59.23;100190.14;108006;1289;21998;-67
2023/11/16 09:25:19;;;;;;;2.70;2.00;;;;;;;15.45;56.92;100185.33;108061;1288;23695;-62
2023/11/16 09:27:50;;;;;;;3.40;1.90;;;;;;;15.48;56.71;100190.34;108005;1284;21998;-63
2023/11/16 09:30:22;;;;;;;3.40;2.00;;;;;;;15.63;56.98;100195.13;107997;1279;23637;-67
2023/11/16 09:32:50;;;;;;;2.50;1.60;;;;;;;15.81;56.47;100196.98;108045;1280;22851;-66
2023/11/16 09:35:21;;;;;;;3.60;2.00;;;;;;;15.88;54.03;100191.58;107835;1288;23742;-64
2023/11/16 09:37:49;;;;;;;2.60;1.50;;;;;;;15.95;54.22;100192.91;105742;1288;1002908;-66
2023/11/16 09:40:19;;;;;;;2.90;1.70;;;;;;;15.99;54.05;100192.95;105841;1289;1002835;-65
2023/11/16 09:42:48;;;;;;;4.50;1.80;;;;;;;15.81;52.54;100191.83;108040;1288;21997;-66
2023/11/16 09:45:16;;;;;;;2.60;1.80;;;;;;;15.74;52.06;100196.34;108046;1288;22022;-66
2023/11/16 09:47:44;;;;;;;2.70;1.90;;;;;;;15.79;53.72;100194.37;108093;1288;21993;-66
2023/11/16 09:50:10;;;;;;;2.90;1.90;;;;;;;15.95;53.98;100203.55;108102;1288;21987;-61
2023/11/16 09:52:39;;;;;;;3.20;1.90;;;;;;;15.97;52.53;100208.78;107907;1288;21987;-67
2023/11/16 09:55:09;;;;;;;2.10;1.40;;;;;;;15.73;50.82;100210.52;108082;1289;21988;-61
2023/11/16 09:57:40;;;;;;;2.80;1.80;;;;;;;15.70;51.81;100217.50;107994;1286;21994;-65
2023/11/16 10:00:18;;;;;;;2.80;1.80;;;;;;;15.80;51.99;100221.93;108662;1288;21920;-66
2023/11/16 10:02:47;;;;;;;3.10;1.80;;;;;;;15.79;51.30;100228.52;108258;1286;21986;-60
2023/11/16 10:05:23;;;;;;;2.90;1.90;;;;;;;15.75;51.89;100233.24;108048;1288;21997;-60
2023/11/16 10:07:53;;;;;;;4.70;1.90;;;;;;;15.79;51.39;100239.84;108039;1278;23615;-61
2023/11/16 10:10:33;;;;;;;2.70;1.80;;;;;;;15.97;52.45;100238.13;108010;1288;21987;-66
2023/11/16 10:12:59;;;;;;;3.40;1.70;;;;;;;16.17;52.66;100238.66;108031;1288;21992;-66
2023/11/16 10:15:24;;;;;;;3.50;2.00;;;;;;;16.12;49.95;100239.03;107998;1287;21990;-66
2023/11/16 10:17:50;;;;;;;3.00;1.80;;;;;;;16.09;49.76;100249.60;107973;1289;21990;-61
2023/11/16 10:20:17;;;;;;;4.40;1.70;;;;;;;15.91;48.54;100249.67;108049;1288;21987;-60
2023/11/16 10:22:47;;;;;;;2.50;1.70;;;;;;;15.77;48.99;100246.98;108089;1289;22030;-60
2023/11/16 10:25:14;;;;;;;2.50;1.60;;;;;;;15.62;50.37;100248.92;108088;1286;21993;-66
2023/11/16 10:27:41;;;;;;;3.90;2.00;;;;;;;15.60;51.37;100249.00;108090;1288;21993;-61
2023/11/16 10:30:11;;;;;;;2.70;1.90;;;;;;;15.49;51.17;100254.51;108058;1288;22011;-60
2023/11/16 10:32:38;;;;;;;3.40;2.00;;;;;;;15.35;50.89;100252.86;108078;1288;24347;-61
2023/11/16 10:35:08;;;;;;;2.90;1.90;;;;;;;15.23;50.66;100259.99;108292;1286;24771;-60
2023/11/16 10:37:33;;;;;;;2.90;1.80;;;;;;;15.28;50.68;100255.58;108167;1287;22001;-60
2023/11/16 10:39:59;;;;;;;2.90;2.10;;;;;;;15.32;51.16;100256.14;108080;1282;21987;-60
2023/11/16 10:42:26;;;;;;;3.60;2.10;;;;;;;15.50;51.70;100259.44;108133;1287;22039;-66
2023/11/16 10:44:52;;;;;;;4.20;2.10;;;;;;;15.51;50.62;100253.56;108003;1287;217773;-67
2023/11/16 10:47:19;;;;;;;3.10;2.00;;;;;;;15.59;50.94;100253.81;108073;1280;21993;-68
2023/11/16 10:49:47;;;;;;;3.10;1.90;;;;;;;15.58;50.33;100253.11;108149;1287;21996;-68
2023/11/16 10:52:14;;;;;;;3.00;2.10;;;;;;;15.62;50.63;100259.19;108187;1287;23054;-68
2023/11/16 10:54:41;;;;;;;2.70;1.80;;;;;;;15.73;51.68;100258.11;108292;1286;21987;-68
2023/11/16 10:57:06;;;;;;;3.10;1.90;;;;;;;15.76;50.47;100257.45;108094;1283;23634;-68
2023/11/16 10:59:32;;;;;;;3.70;2.00;;;;;;;15.80;50.19;100262.27;108131;1281;22260;-68
2023/11/16 11:01:59;;;;;;;2.60;1.90;;;;;;;15.70;50.12;100261.23;108090;1286;21988;-68
2023/11/16 11:04:25;;;;;;;6.00;2.10;;;;;;;15.65;50.45;100265.11;108142;1286;21986;-68
2023/11/16 11:06:54;;;;;;;7.20;2.30;;;;;;;15.42;48.69;100264.13;108082;1286;21994;-67
2023/11/16 11:09:22;;;;;;;2.80;1.80;;;;;;;15.35;48.40;100268.23;108083;1278;21999;-67
2023/11/16 11:11:51;;;;;;;3.80;1.70;;;;;;;15.29;48.62;100272.52;108123;1285;22024;-61
2023/11/16 11:14:25;;;;;;;6.90;2.20;;;;;;;15.40;48.74;100279.40;108159;1276;22049;-61
2023/11/16 11:16:51;;;;;;;3.90;2.00;;;;;;;15.46;48.90;100280.61;108105;1286;22034;-62
2023/11/16 11:19:26;;;;;;;3.50;2.40;;;;;;;15.48;49.38;100284.60;108135;1286;21992;-68